sensor_id;sensor_type;location;lat;lon;timestamp;P1;durP1;ratioP1;P2;durP2;ratioP2
26620;SDS011;14253;44.840;10.444;2024-01-30T00:02:14;100.07;;;32.28;;
26620;SDS011;14253;44.840;10.444;2024-01-30T00:04:40;114.90;;;32.40;;
26620;SDS011;14253;44.840;10.444;2024-01-30T00:07:06;71.90;;;31.65;;
26620;SDS011;14253;44.840;10.444;2024-01-30T00:09:32;100.68;;;35.72;;
26620;SDS011;14253;44.840;10.444;2024-01-30T00:11:57;121.90;;;34.75;;
26620;SDS011;14253;44.840;10.444;2024-01-30T00:14:24;102.50;;;30.92;;
26620;SDS011;14253;44.840;10.444;2024-01-30T00:16:50;195.38;;;36.22;;
26620;SDS011;14253;44.840;10.444;2024-01-30T00:19:17;108.95;;;35.83;;
26620;SDS011;14253;44.840;10.444;2024-01-30T00:21:43;154.23;;;36.15;;
26620;SDS011;14253;44.840;10.444;2024-01-30T00:24:09;63.08;;;29.85;;
26620;SDS011;14253;44.840;10.444;2024-01-30T00:26:35;56.85;;;31.17;;
26620;SDS011;14253;44.840;10.444;2024-01-30T00:29:01;82.13;;;32.97;;
26620;SDS011;14253;44.840;10.444;2024-01-30T00:31:27;92.97;;;32.90;;
26620;SDS011;14253;44.840;10.444;2024-01-30T00:33:53;102.05;;;34.63;;
26620;SDS011;14253;44.840;10.444;2024-01-30T00:36:19;87.30;;;31.35;;
26620;SDS011;14253;44.840;10.444;2024-01-30T00:38:45;89.10;;;34.17;;
26620;SDS011;14253;44.840;10.444;2024-01-30T00:41:11;78.28;;;33.50;;
26620;SDS011;14253;44.840;10.444;2024-01-30T00:43:37;92.35;;;32.45;;
26620;SDS011;14253;44.840;10.444;2024-01-30T00:46:03;106.28;;;32.63;;
26620;SDS011;14253;44.840;10.444;2024-01-30T00:48:29;74.75;;;32.78;;
26620;SDS011;14253;44.840;10.444;2024-01-30T00:50:55;56.13;;;29.15;;
26620;SDS011;14253;44.840;10.444;2024-01-30T00:53:21;60.92;;;30.38;;
26620;SDS011;14253;44.840;10.444;2024-01-30T00:55:47;63.03;;;30.38;;
26620;SDS011;14253;44.840;10.444;2024-01-30T00:58:13;51.03;;;29.90;;
26620;SDS011;14253;44.840;10.444;2024-01-30T01:00:39;67.55;;;31.25;;
26620;SDS011;14253;44.840;10.444;2024-01-30T01:03:05;53.05;;;30.50;;
26620;SDS011;14253;44.840;10.444;2024-01-30T01:05:31;83.53;;;31.25;;
26620;SDS011;14253;44.840;10.444;2024-01-30T01:07:57;63.10;;;29.95;;
26620;SDS011;14253;44.840;10.444;2024-01-30T01:10:23;53.28;;;27.73;;
26620;SDS011;14253;44.840;10.444;2024-01-30T01:12:49;57.95;;;29.75;;
26620;SDS011;14253;44.840;10.444;2024-01-30T01:15:15;73.43;;;30.25;;
26620;SDS011;14253;44.840;10.444;2024-01-30T01:17:41;56.67;;;29.15;;
26620;SDS011;14253;44.840;10.444;2024-01-30T01:20:07;52.08;;;28.83;;
26620;SDS011;14253;44.840;10.444;2024-01-30T01:22:34;52.17;;;31.08;;
26620;SDS011;14253;44.840;10.444;2024-01-30T01:25:00;96.10;;;31.20;;
26620;SDS011;14253;44.840;10.444;2024-01-30T01:27:26;54.80;;;30.42;;
26620;SDS011;14253;44.840;10.444;2024-01-30T01:29:53;58.70;;;30.48;;
26620;SDS011;14253;44.840;10.444;2024-01-30T01:32:19;109.82;;;34.58;;
26620;SDS011;14253;44.840;10.444;2024-01-30T01:34:45;92.00;;;34.72;;
26620;SDS011;14253;44.840;10.444;2024-01-30T01:37:11;172.82;;;35.28;;
26620;SDS011;14253;44.840;10.444;2024-01-30T01:39:37;54.80;;;29.83;;
26620;SDS011;14253;44.840;10.444;2024-01-30T01:42:03;95.82;;;33.85;;
26620;SDS011;14253;44.840;10.444;2024-01-30T01:44:29;183.88;;;36.92;;
26620;SDS011;14253;44.840;10.444;2024-01-30T01:46:55;142.60;;;33.22;;
26620;SDS011;14253;44.840;10.444;2024-01-30T01:49:24;116.47;;;34.05;;
26620;SDS011;14253;44.840;10.444;2024-01-30T01:51:53;144.70;;;33.10;;
26620;SDS011;14253;44.840;10.444;2024-01-30T01:54:22;174.02;;;35.40;;
26620;SDS011;14253;44.840;10.444;2024-01-30T01:56:49;194.80;;;33.45;;
26620;SDS011;14253;44.840;10.444;2024-01-30T01:59:16;238.00;;;38.30;;
26620;SDS011;14253;44.840;10.444;2024-01-30T02:01:43;126.20;;;33.65;;
26620;SDS011;14253;44.840;10.444;2024-01-30T02:04:11;262.92;;;37.40;;
26620;SDS011;14253;44.840;10.444;2024-01-30T02:06:37;179.52;;;34.17;;
26620;SDS011;14253;44.840;10.444;2024-01-30T02:09:03;198.70;;;34.75;;
26620;SDS011;14253;44.840;10.444;2024-01-30T02:11:29;173.90;;;31.67;;
26620;SDS011;14253;44.840;10.444;2024-01-30T02:13:57;81.35;;;30.65;;
26620;SDS011;14253;44.840;10.444;2024-01-30T02:16:27;156.48;;;34.35;;
26620;SDS011;14253;44.840;10.444;2024-01-30T02:18:53;156.48;;;33.83;;
26620;SDS011;14253;44.840;10.444;2024-01-30T02:21:19;128.27;;;33.05;;
26620;SDS011;14253;44.840;10.444;2024-01-30T02:23:46;145.43;;;32.50;;
26620;SDS011;14253;44.840;10.444;2024-01-30T02:26:13;223.07;;;34.33;;
26620;SDS011;14253;44.840;10.444;2024-01-30T02:28:39;65.15;;;30.45;;
26620;SDS011;14253;44.840;10.444;2024-01-30T02:31:05;75.95;;;31.35;;
26620;SDS011;14253;44.840;10.444;2024-01-30T02:33:31;70.78;;;30.02;;
26620;SDS011;14253;44.840;10.444;2024-01-30T02:35:57;106.32;;;31.80;;
26620;SDS011;14253;44.840;10.444;2024-01-30T02:38:24;66.70;;;27.55;;
26620;SDS011;14253;44.840;10.444;2024-01-30T02:40:52;98.60;;;31.08;;
26620;SDS011;14253;44.840;10.444;2024-01-30T02:43:18;159.15;;;31.85;;
26620;SDS011;14253;44.840;10.444;2024-01-30T02:45:44;97.85;;;27.95;;
26620;SDS011;14253;44.840;10.444;2024-01-30T02:48:10;145.63;;;29.77;;
26620;SDS011;14253;44.840;10.444;2024-01-30T02:50:36;96.35;;;29.27;;
26620;SDS011;14253;44.840;10.444;2024-01-30T02:53:02;79.43;;;30.60;;
26620;SDS011;14253;44.840;10.444;2024-01-30T02:55:28;95.22;;;29.15;;
26620;SDS011;14253;44.840;10.444;2024-01-30T02:57:54;89.63;;;30.27;;
26620;SDS011;14253;44.840;10.444;2024-01-30T03:00:20;173.10;;;32.10;;
26620;SDS011;14253;44.840;10.444;2024-01-30T03:02:46;140.32;;;31.38;;
26620;SDS011;14253;44.840;10.444;2024-01-30T03:05:12;75.07;;;28.92;;
26620;SDS011;14253;44.840;10.444;2024-01-30T03:07:38;114.13;;;31.13;;
26620;SDS011;14253;44.840;10.444;2024-01-30T03:10:04;86.72;;;27.48;;
26620;SDS011;14253;44.840;10.444;2024-01-30T03:12:31;53.92;;;27.35;;
26620;SDS011;14253;44.840;10.444;2024-01-30T03:14:57;57.63;;;28.58;;
26620;SDS011;14253;44.840;10.444;2024-01-30T03:17:23;90.97;;;28.45;;
26620;SDS011;14253;44.840;10.444;2024-01-30T03:19:49;129.32;;;30.33;;
26620;SDS011;14253;44.840;10.444;2024-01-30T03:22:16;109.32;;;28.85;;
26620;SDS011;14253;44.840;10.444;2024-01-30T03:24:42;75.32;;;27.42;;
26620;SDS011;14253;44.840;10.444;2024-01-30T03:27:08;101.38;;;29.30;;
26620;SDS011;14253;44.840;10.444;2024-01-30T03:29:34;127.88;;;29.83;;
26620;SDS011;14253;44.840;10.444;2024-01-30T03:32:00;105.20;;;27.85;;
26620;SDS011;14253;44.840;10.444;2024-01-30T03:34:26;66.63;;;29.52;;
26620;SDS011;14253;44.840;10.444;2024-01-30T03:36:52;55.88;;;28.10;;
26620;SDS011;14253;44.840;10.444;2024-01-30T03:39:18;112.07;;;33.30;;
26620;SDS011;14253;44.840;10.444;2024-01-30T03:41:44;70.80;;;31.27;;
26620;SDS011;14253;44.840;10.444;2024-01-30T03:44:10;93.50;;;30.20;;
26620;SDS011;14253;44.840;10.444;2024-01-30T03:46:36;116.25;;;30.65;;
26620;SDS011;14253;44.840;10.444;2024-01-30T03:49:02;120.65;;;31.10;;
26620;SDS011;14253;44.840;10.444;2024-01-30T03:51:28;107.00;;;29.50;;
26620;SDS011;14253;44.840;10.444;2024-01-30T03:53:54;112.47;;;31.70;;
26620;SDS011;14253;44.840;10.444;2024-01-30T03:56:20;123.43;;;30.95;;
26620;SDS011;14253;44.840;10.444;2024-01-30T03:58:46;67.03;;;29.13;;
26620;SDS011;14253;44.840;10.444;2024-01-30T04:01:15;100.88;;;30.23;;
26620;SDS011;14253;44.840;10.444;2024-01-30T04:03:41;135.45;;;32.35;;
26620;SDS011;14253;44.840;10.444;2024-01-30T04:06:09;107.20;;;28.75;;
26620;SDS011;14253;44.840;10.444;2024-01-30T04:08:35;179.32;;;31.98;;
26620;SDS011;14253;44.840;10.444;2024-01-30T04:11:04;63.88;;;27.90;;
26620;SDS011;14253;44.840;10.444;2024-01-30T04:13:31;135.13;;;29.27;;
26620;SDS011;14253;44.840;10.444;2024-01-30T04:15:58;121.20;;;29.83;;
26620;SDS011;14253;44.840;10.444;2024-01-30T04:18:27;87.72;;;29.42;;
26620;SDS011;14253;44.840;10.444;2024-01-30T04:20:53;88.47;;;29.30;;
26620;SDS011;14253;44.840;10.444;2024-01-30T04:23:19;83.47;;;29.85;;
26620;SDS011;14253;44.840;10.444;2024-01-30T04:25:45;100.43;;;30.70;;
26620;SDS011;14253;44.840;10.444;2024-01-30T04:28:11;193.63;;;28.75;;
26620;SDS011;14253;44.840;10.444;2024-01-30T04:30:37;147.77;;;28.17;;
26620;SDS011;14253;44.840;10.444;2024-01-30T04:33:04;114.72;;;26.73;;
26620;SDS011;14253;44.840;10.444;2024-01-30T04:35:30;81.00;;;25.10;;
26620;SDS011;14253;44.840;10.444;2024-01-30T04:37:56;120.35;;;27.65;;
26620;SDS011;14253;44.840;10.444;2024-01-30T04:40:22;134.30;;;28.02;;
26620;SDS011;14253;44.840;10.444;2024-01-30T04:42:48;86.65;;;24.92;;
26620;SDS011;14253;44.840;10.444;2024-01-30T04:45:13;126.53;;;26.70;;
26620;SDS011;14253;44.840;10.444;2024-01-30T04:47:40;167.27;;;28.95;;
26620;SDS011;14253;44.840;10.444;2024-01-30T04:50:06;121.95;;;25.75;;
26620;SDS011;14253;44.840;10.444;2024-01-30T04:52:33;104.75;;;28.15;;
26620;SDS011;14253;44.840;10.444;2024-01-30T04:55:00;166.35;;;27.70;;
26620;SDS011;14253;44.840;10.444;2024-01-30T04:57:26;108.28;;;26.50;;
26620;SDS011;14253;44.840;10.444;2024-01-30T04:59:52;97.45;;;27.73;;
26620;SDS011;14253;44.840;10.444;2024-01-30T05:02:18;131.68;;;28.83;;
26620;SDS011;14253;44.840;10.444;2024-01-30T05:04:44;107.45;;;25.65;;
26620;SDS011;14253;44.840;10.444;2024-01-30T05:07:10;116.70;;;26.58;;
26620;SDS011;14253;44.840;10.444;2024-01-30T05:09:36;93.40;;;26.23;;
26620;SDS011;14253;44.840;10.444;2024-01-30T05:12:02;93.47;;;28.13;;
26620;SDS011;14253;44.840;10.444;2024-01-30T05:14:28;161.85;;;29.20;;
26620;SDS011;14253;44.840;10.444;2024-01-30T05:16:54;94.68;;;26.67;;
26620;SDS011;14253;44.840;10.444;2024-01-30T05:19:20;132.35;;;27.92;;
26620;SDS011;14253;44.840;10.444;2024-01-30T05:21:48;114.93;;;26.27;;
26620;SDS011;14253;44.840;10.444;2024-01-30T05:24:14;96.05;;;25.88;;
26620;SDS011;14253;44.840;10.444;2024-01-30T05:26:40;58.95;;;24.45;;
26620;SDS011;14253;44.840;10.444;2024-01-30T05:29:06;114.50;;;28.83;;
26620;SDS011;14253;44.840;10.444;2024-01-30T05:31:33;77.18;;;26.02;;
26620;SDS011;14253;44.840;10.444;2024-01-30T05:33:59;120.95;;;25.17;;
26620;SDS011;14253;44.840;10.444;2024-01-30T05:36:26;116.38;;;25.73;;
26620;SDS011;14253;44.840;10.444;2024-01-30T05:38:52;136.60;;;23.98;;
26620;SDS011;14253;44.840;10.444;2024-01-30T05:41:18;76.22;;;22.27;;
26620;SDS011;14253;44.840;10.444;2024-01-30T05:43:46;108.45;;;27.17;;
26620;SDS011;14253;44.840;10.444;2024-01-30T05:46:12;127.72;;;24.00;;
26620;SDS011;14253;44.840;10.444;2024-01-30T05:48:44;105.78;;;24.10;;
26620;SDS011;14253;44.840;10.444;2024-01-30T05:51:10;141.90;;;24.00;;
26620;SDS011;14253;44.840;10.444;2024-01-30T05:53:36;131.63;;;24.88;;
26620;SDS011;14253;44.840;10.444;2024-01-30T05:56:02;88.07;;;24.20;;
26620;SDS011;14253;44.840;10.444;2024-01-30T05:58:28;121.18;;;26.65;;
26620;SDS011;14253;44.840;10.444;2024-01-30T06:00:54;132.80;;;24.35;;
26620;SDS011;14253;44.840;10.444;2024-01-30T06:03:20;85.53;;;23.10;;
26620;SDS011;14253;44.840;10.444;2024-01-30T06:05:46;103.43;;;26.35;;
26620;SDS011;14253;44.840;10.444;2024-01-30T06:08:12;81.18;;;25.02;;
26620;SDS011;14253;44.840;10.444;2024-01-30T06:10:38;117.97;;;25.85;;
26620;SDS011;14253;44.840;10.444;2024-01-30T06:13:04;86.95;;;24.65;;
26620;SDS011;14253;44.840;10.444;2024-01-30T06:15:30;101.50;;;27.92;;
26620;SDS011;14253;44.840;10.444;2024-01-30T06:17:58;99.18;;;25.92;;
26620;SDS011;14253;44.840;10.444;2024-01-30T06:20:24;98.57;;;26.02;;
26620;SDS011;14253;44.840;10.444;2024-01-30T06:22:50;126.97;;;26.02;;
26620;SDS011;14253;44.840;10.444;2024-01-30T06:25:16;79.15;;;25.75;;
26620;SDS011;14253;44.840;10.444;2024-01-30T06:27:42;73.10;;;25.42;;
26620;SDS011;14253;44.840;10.444;2024-01-30T06:30:09;118.13;;;28.08;;
26620;SDS011;14253;44.840;10.444;2024-01-30T06:32:35;102.85;;;24.73;;
26620;SDS011;14253;44.840;10.444;2024-01-30T06:35:01;106.15;;;26.48;;
26620;SDS011;14253;44.840;10.444;2024-01-30T06:37:27;90.13;;;28.77;;
26620;SDS011;14253;44.840;10.444;2024-01-30T06:39:53;131.20;;;25.40;;
26620;SDS011;14253;44.840;10.444;2024-01-30T06:42:19;106.80;;;25.75;;
26620;SDS011;14253;44.840;10.444;2024-01-30T06:44:45;140.38;;;24.63;;
26620;SDS011;14253;44.840;10.444;2024-01-30T06:47:11;137.45;;;27.33;;
26620;SDS011;14253;44.840;10.444;2024-01-30T06:49:37;111.70;;;26.20;;
26620;SDS011;14253;44.840;10.444;2024-01-30T06:52:06;126.60;;;28.48;;
26620;SDS011;14253;44.840;10.444;2024-01-30T06:54:33;121.15;;;30.63;;
26620;SDS011;14253;44.840;10.444;2024-01-30T06:56:59;107.47;;;26.48;;
26620;SDS011;14253;44.840;10.444;2024-01-30T06:59:33;127.80;;;26.40;;
26620;SDS011;14253;44.840;10.444;2024-01-30T07:02:21;134.95;;;26.15;;
26620;SDS011;14253;44.840;10.444;2024-01-30T07:04:50;82.78;;;25.83;;
26620;SDS011;14253;44.840;10.444;2024-01-30T07:07:16;96.68;;;24.95;;
26620;SDS011;14253;44.840;10.444;2024-01-30T07:09:42;71.90;;;25.80;;
26620;SDS011;14253;44.840;10.444;2024-01-30T07:12:08;114.95;;;26.52;;
26620;SDS011;14253;44.840;10.444;2024-01-30T07:14:34;83.05;;;24.38;;
26620;SDS011;14253;44.840;10.444;2024-01-30T07:17:00;89.32;;;25.25;;
26620;SDS011;14253;44.840;10.444;2024-01-30T07:19:30;88.07;;;26.02;;
26620;SDS011;14253;44.840;10.444;2024-01-30T07:25:45;50.15;;;22.48;;
26620;SDS011;14253;44.840;10.444;2024-01-30T07:28:30;58.28;;;24.55;;
26620;SDS011;14253;44.840;10.444;2024-01-30T07:31:02;56.42;;;24.02;;
26620;SDS011;14253;44.840;10.444;2024-01-30T07:33:28;96.30;;;27.38;;
26620;SDS011;14253;44.840;10.444;2024-01-30T07:35:54;98.15;;;26.02;;
26620;SDS011;14253;44.840;10.444;2024-01-30T07:38:20;92.47;;;24.15;;
26620;SDS011;14253;44.840;10.444;2024-01-30T07:40:46;88.55;;;23.52;;
26620;SDS011;14253;44.840;10.444;2024-01-30T07:43:16;64.20;;;24.90;;
26620;SDS011;14253;44.840;10.444;2024-01-30T07:45:55;47.63;;;23.15;;
26620;SDS011;14253;44.840;10.444;2024-01-30T07:48:21;45.97;;;22.38;;
26620;SDS011;14253;44.840;10.444;2024-01-30T07:50:47;50.72;;;22.27;;
26620;SDS011;14253;44.840;10.444;2024-01-30T07:53:25;44.40;;;22.15;;
26620;SDS011;14253;44.840;10.444;2024-01-30T07:55:51;42.78;;;22.70;;
26620;SDS011;14253;44.840;10.444;2024-01-30T07:58:17;53.13;;;23.05;;
26620;SDS011;14253;44.840;10.444;2024-01-30T08:03:33;35.72;;;19.92;;
26620;SDS011;14253;44.840;10.444;2024-01-30T08:06:00;48.53;;;21.33;;
26620;SDS011;14253;44.840;10.444;2024-01-30T08:08:27;40.60;;;21.83;;
26620;SDS011;14253;44.840;10.444;2024-01-30T08:10:53;45.70;;;22.58;;
26620;SDS011;14253;44.840;10.444;2024-01-30T08:20:10;38.72;;;21.65;;
26620;SDS011;14253;44.840;10.444;2024-01-30T08:23:11;42.33;;;23.70;;
26620;SDS011;14253;44.840;10.444;2024-01-30T08:25:41;47.55;;;24.90;;
26620;SDS011;14253;44.840;10.444;2024-01-30T08:28:07;41.53;;;23.02;;
26620;SDS011;14253;44.840;10.444;2024-01-30T08:30:33;51.90;;;25.65;;
26620;SDS011;14253;44.840;10.444;2024-01-30T08:32:59;54.22;;;25.02;;
26620;SDS011;14253;44.840;10.444;2024-01-30T08:35:25;44.65;;;24.80;;
26620;SDS011;14253;44.840;10.444;2024-01-30T08:37:52;47.60;;;27.02;;
26620;SDS011;14253;44.840;10.444;2024-01-30T08:40:19;49.17;;;24.02;;
26620;SDS011;14253;44.840;10.444;2024-01-30T08:42:45;42.22;;;22.98;;
26620;SDS011;14253;44.840;10.444;2024-01-30T08:45:11;44.67;;;23.75;;
26620;SDS011;14253;44.840;10.444;2024-01-30T08:47:42;56.40;;;24.92;;
26620;SDS011;14253;44.840;10.444;2024-01-30T08:50:08;48.53;;;24.63;;
26620;SDS011;14253;44.840;10.444;2024-01-30T08:52:34;58.45;;;26.15;;
26620;SDS011;14253;44.840;10.444;2024-01-30T08:55:00;46.13;;;24.33;;
26620;SDS011;14253;44.840;10.444;2024-01-30T08:57:26;49.55;;;26.13;;
26620;SDS011;14253;44.840;10.444;2024-01-30T08:59:58;50.25;;;21.48;;
26620;SDS011;14253;44.840;10.444;2024-01-30T09:02:30;41.78;;;23.13;;
26620;SDS011;14253;44.840;10.444;2024-01-30T09:04:56;50.22;;;21.80;;
26620;SDS011;14253;44.840;10.444;2024-01-30T09:07:22;39.22;;;18.40;;
26620;SDS011;14253;44.840;10.444;2024-01-30T09:09:54;31.80;;;18.50;;
26620;SDS011;14253;44.840;10.444;2024-01-30T09:12:20;31.80;;;18.08;;
26620;SDS011;14253;44.840;10.444;2024-01-30T09:14:46;62.60;;;18.38;;
26620;SDS011;14253;44.840;10.444;2024-01-30T09:17:12;54.85;;;18.83;;
26620;SDS011;14253;44.840;10.444;2024-01-30T09:19:39;48.95;;;20.92;;
26620;SDS011;14253;44.840;10.444;2024-01-30T09:22:06;41.22;;;17.98;;
26620;SDS011;14253;44.840;10.444;2024-01-30T09:24:32;54.03;;;19.80;;
26620;SDS011;14253;44.840;10.444;2024-01-30T09:26:58;42.60;;;19.20;;
26620;SDS011;14253;44.840;10.444;2024-01-30T09:29:24;41.72;;;20.67;;
26620;SDS011;14253;44.840;10.444;2024-01-30T09:31:50;40.15;;;19.98;;
26620;SDS011;14253;44.840;10.444;2024-01-30T09:34:16;41.22;;;20.23;;
26620;SDS011;14253;44.840;10.444;2024-01-30T09:36:42;38.00;;;19.63;;
26620;SDS011;14253;44.840;10.444;2024-01-30T09:39:08;50.47;;;21.75;;
26620;SDS011;14253;44.840;10.444;2024-01-30T09:41:36;51.85;;;22.77;;
26620;SDS011;14253;44.840;10.444;2024-01-30T09:44:12;44.78;;;19.92;;
26620;SDS011;14253;44.840;10.444;2024-01-30T09:46:42;36.67;;;19.95;;
26620;SDS011;14253;44.840;10.444;2024-01-30T09:49:11;33.40;;;20.05;;
26620;SDS011;14253;44.840;10.444;2024-01-30T09:51:39;31.45;;;19.38;;
26620;SDS011;14253;44.840;10.444;2024-01-30T09:54:06;32.00;;;18.83;;
26620;SDS011;14253;44.840;10.444;2024-01-30T09:56:35;35.10;;;21.40;;
26620;SDS011;14253;44.840;10.444;2024-01-30T09:59:01;39.25;;;22.58;;
26620;SDS011;14253;44.840;10.444;2024-01-30T10:01:28;37.65;;;21.20;;
26620;SDS011;14253;44.840;10.444;2024-01-30T10:03:57;44.90;;;21.10;;
26620;SDS011;14253;44.840;10.444;2024-01-30T10:06:24;43.67;;;23.35;;
26620;SDS011;14253;44.840;10.444;2024-01-30T10:09:02;38.47;;;22.23;;
26620;SDS011;14253;44.840;10.444;2024-01-30T10:11:44;37.63;;;21.25;;
26620;SDS011;14253;44.840;10.444;2024-01-30T10:17:46;40.60;;;21.45;;
26620;SDS011;14253;44.840;10.444;2024-01-30T10:21:14;39.40;;;22.05;;
26620;SDS011;14253;44.840;10.444;2024-01-30T10:23:49;41.97;;;22.85;;
26620;SDS011;14253;44.840;10.444;2024-01-30T10:26:45;44.63;;;23.02;;
26620;SDS011;14253;44.840;10.444;2024-01-30T10:29:12;43.22;;;24.35;;
26620;SDS011;14253;44.840;10.444;2024-01-30T10:31:45;47.40;;;25.60;;
26620;SDS011;14253;44.840;10.444;2024-01-30T10:34:37;48.40;;;27.08;;
26620;SDS011;14253;44.840;10.444;2024-01-30T10:37:54;53.30;;;27.63;;
26620;SDS011;14253;44.840;10.444;2024-01-30T10:40:26;55.15;;;28.52;;
26620;SDS011;14253;44.840;10.444;2024-01-30T10:42:55;55.10;;;28.90;;
26620;SDS011;14253;44.840;10.444;2024-01-30T10:49:25;67.10;;;31.52;;
26620;SDS011;14253;44.840;10.444;2024-01-30T10:51:56;64.15;;;31.80;;
26620;SDS011;14253;44.840;10.444;2024-01-30T10:57:24;65.82;;;32.90;;
26620;SDS011;14253;44.840;10.444;2024-01-30T11:00:40;72.88;;;33.28;;
26620;SDS011;14253;44.840;10.444;2024-01-30T11:03:07;71.22;;;32.88;;
26620;SDS011;14253;44.840;10.444;2024-01-30T11:05:33;63.40;;;33.25;;
26620;SDS011;14253;44.840;10.444;2024-01-30T11:08:13;51.75;;;27.23;;
26620;SDS011;14253;44.840;10.444;2024-01-30T11:10:46;68.97;;;34.05;;
26620;SDS011;14253;44.840;10.444;2024-01-30T11:13:21;71.57;;;34.28;;
26620;SDS011;14253;44.840;10.444;2024-01-30T11:19:14;72.88;;;35.42;;
26620;SDS011;14253;44.840;10.444;2024-01-30T11:21:53;78.13;;;37.22;;
26620;SDS011;14253;44.840;10.444;2024-01-30T11:24:22;70.43;;;36.97;;
26620;SDS011;14253;44.840;10.444;2024-01-30T11:26:49;84.32;;;37.80;;
26620;SDS011;14253;44.840;10.444;2024-01-30T11:29:24;79.38;;;36.47;;
26620;SDS011;14253;44.840;10.444;2024-01-30T11:31:57;81.22;;;37.17;;
26620;SDS011;14253;44.840;10.444;2024-01-30T11:34:28;83.10;;;39.47;;
26620;SDS011;14253;44.840;10.444;2024-01-30T11:37:04;76.45;;;37.80;;
26620;SDS011;14253;44.840;10.444;2024-01-30T11:39:35;79.72;;;38.30;;
26620;SDS011;14253;44.840;10.444;2024-01-30T11:42:08;76.15;;;39.17;;
26620;SDS011;14253;44.840;10.444;2024-01-30T11:44:34;81.05;;;38.33;;
26620;SDS011;14253;44.840;10.444;2024-01-30T11:47:00;85.45;;;39.05;;
26620;SDS011;14253;44.840;10.444;2024-01-30T11:49:28;90.50;;;40.97;;
26620;SDS011;14253;44.840;10.444;2024-01-30T11:51:56;89.60;;;39.78;;
26620;SDS011;14253;44.840;10.444;2024-01-30T11:54:30;86.22;;;38.58;;
26620;SDS011;14253;44.840;10.444;2024-01-30T11:56:57;90.63;;;42.55;;
26620;SDS011;14253;44.840;10.444;2024-01-30T11:59:23;87.32;;;38.70;;
26620;SDS011;14253;44.840;10.444;2024-01-30T12:01:49;84.75;;;38.95;;
26620;SDS011;14253;44.840;10.444;2024-01-30T12:04:17;87.95;;;40.72;;
26620;SDS011;14253;44.840;10.444;2024-01-30T12:06:43;82.00;;;37.60;;
26620;SDS011;14253;44.840;10.444;2024-01-30T12:09:09;93.65;;;41.85;;
26620;SDS011;14253;44.840;10.444;2024-01-30T12:11:46;86.75;;;40.72;;
26620;SDS011;14253;44.840;10.444;2024-01-30T12:14:14;93.40;;;40.38;;
26620;SDS011;14253;44.840;10.444;2024-01-30T12:16:40;89.25;;;42.45;;
26620;SDS011;14253;44.840;10.444;2024-01-30T12:19:09;82.38;;;38.63;;
26620;SDS011;14253;44.840;10.444;2024-01-30T12:21:35;86.30;;;39.85;;
26620;SDS011;14253;44.840;10.444;2024-01-30T12:24:04;79.90;;;39.28;;
26620;SDS011;14253;44.840;10.444;2024-01-30T12:26:32;92.78;;;40.33;;
26620;SDS011;14253;44.840;10.444;2024-01-30T12:28:58;74.38;;;37.85;;
26620;SDS011;14253;44.840;10.444;2024-01-30T12:31:27;84.75;;;38.75;;
26620;SDS011;14253;44.840;10.444;2024-01-30T12:33:54;81.70;;;38.78;;
26620;SDS011;14253;44.840;10.444;2024-01-30T12:36:21;77.07;;;37.40;;
26620;SDS011;14253;44.840;10.444;2024-01-30T12:38:47;86.20;;;41.47;;
26620;SDS011;14253;44.840;10.444;2024-01-30T12:41:14;80.35;;;38.92;;
26620;SDS011;14253;44.840;10.444;2024-01-30T12:43:40;82.03;;;38.10;;
26620;SDS011;14253;44.840;10.444;2024-01-30T12:46:06;76.40;;;38.55;;
26620;SDS011;14253;44.840;10.444;2024-01-30T12:48:32;84.55;;;38.20;;
26620;SDS011;14253;44.840;10.444;2024-01-30T12:50:58;82.18;;;39.60;;
26620;SDS011;14253;44.840;10.444;2024-01-30T12:53:24;81.97;;;40.72;;
26620;SDS011;14253;44.840;10.444;2024-01-30T12:55:51;81.45;;;36.90;;
26620;SDS011;14253;44.840;10.444;2024-01-30T12:58:17;79.18;;;38.80;;
26620;SDS011;14253;44.840;10.444;2024-01-30T13:00:43;75.78;;;37.70;;
26620;SDS011;14253;44.840;10.444;2024-01-30T13:03:10;75.57;;;36.65;;
26620;SDS011;14253;44.840;10.444;2024-01-30T13:05:36;75.97;;;36.97;;
26620;SDS011;14253;44.840;10.444;2024-01-30T13:08:02;85.28;;;40.10;;
26620;SDS011;14253;44.840;10.444;2024-01-30T13:10:32;72.07;;;36.83;;
26620;SDS011;14253;44.840;10.444;2024-01-30T13:12:59;72.65;;;36.03;;
26620;SDS011;14253;44.840;10.444;2024-01-30T13:15:26;75.90;;;38.25;;
26620;SDS011;14253;44.840;10.444;2024-01-30T13:17:54;70.90;;;34.90;;
26620;SDS011;14253;44.840;10.444;2024-01-30T13:20:24;74.97;;;36.47;;
26620;SDS011;14253;44.840;10.444;2024-01-30T13:23:13;71.00;;;36.72;;
26620;SDS011;14253;44.840;10.444;2024-01-30T13:25:42;66.32;;;35.05;;
26620;SDS011;14253;44.840;10.444;2024-01-30T13:28:08;65.20;;;33.28;;
26620;SDS011;14253;44.840;10.444;2024-01-30T13:30:37;64.60;;;33.67;;
26620;SDS011;14253;44.840;10.444;2024-01-30T13:33:03;68.13;;;34.97;;
26620;SDS011;14253;44.840;10.444;2024-01-30T13:35:29;61.83;;;34.92;;
26620;SDS011;14253;44.840;10.444;2024-01-30T13:37:55;60.80;;;32.92;;
26620;SDS011;14253;44.840;10.444;2024-01-30T13:40:21;63.53;;;34.70;;
26620;SDS011;14253;44.840;10.444;2024-01-30T13:42:47;59.20;;;33.22;;
26620;SDS011;14253;44.840;10.444;2024-01-30T13:45:13;63.00;;;34.97;;
26620;SDS011;14253;44.840;10.444;2024-01-30T13:47:40;61.70;;;33.90;;
26620;SDS011;14253;44.840;10.444;2024-01-30T13:50:09;53.08;;;30.08;;
26620;SDS011;14253;44.840;10.444;2024-01-30T13:52:40;57.00;;;31.55;;
26620;SDS011;14253;44.840;10.444;2024-01-30T13:55:06;54.38;;;31.17;;
26620;SDS011;14253;44.840;10.444;2024-01-30T13:57:33;56.35;;;31.80;;
26620;SDS011;14253;44.840;10.444;2024-01-30T14:00:02;54.10;;;30.27;;
26620;SDS011;14253;44.840;10.444;2024-01-30T14:02:38;56.95;;;32.45;;
26620;SDS011;14253;44.840;10.444;2024-01-30T14:05:04;55.60;;;30.35;;
26620;SDS011;14253;44.840;10.444;2024-01-30T14:07:31;53.42;;;30.45;;
26620;SDS011;14253;44.840;10.444;2024-01-30T14:09:57;59.55;;;31.67;;
26620;SDS011;14253;44.840;10.444;2024-01-30T14:12:23;58.97;;;32.55;;
26620;SDS011;14253;44.840;10.444;2024-01-30T14:14:49;63.85;;;36.25;;
26620;SDS011;14253;44.840;10.444;2024-01-30T14:17:15;57.28;;;32.47;;
26620;SDS011;14253;44.840;10.444;2024-01-30T14:19:41;53.40;;;30.10;;
26620;SDS011;14253;44.840;10.444;2024-01-30T14:22:07;52.10;;;31.30;;
26620;SDS011;14253;44.840;10.444;2024-01-30T14:24:33;50.40;;;29.45;;
26620;SDS011;14253;44.840;10.444;2024-01-30T14:26:59;59.35;;;32.92;;
26620;SDS011;14253;44.840;10.444;2024-01-30T14:29:25;54.22;;;31.98;;
26620;SDS011;14253;44.840;10.444;2024-01-30T14:31:52;47.88;;;29.65;;
26620;SDS011;14253;44.840;10.444;2024-01-30T14:34:18;53.30;;;30.77;;
26620;SDS011;14253;44.840;10.444;2024-01-30T14:36:45;58.80;;;33.25;;
26620;SDS011;14253;44.840;10.444;2024-01-30T14:39:11;60.83;;;33.80;;